createdAt,value
2022-11-05T00:01:42.501Z,25.25
2022-11-05T00:05:03.305Z,22.85
2022-11-05T00:08:24.374Z,21.90
2022-11-05T00:11:46.574Z,20.27
2022-11-05T00:15:08.214Z,16.98
2022-11-05T00:18:10.829Z,11.40
2022-11-05T00:21:33.241Z,10.40
2022-11-05T00:24:53.981Z,8.75
2022-11-05T00:28:01.580Z,7.70
2022-11-05T00:31:05.932Z,7.45
2022-11-05T00:34:08.099Z,7.07
2022-11-05T00:37:10.266Z,6.70
2022-11-05T00:40:13.782Z,7.07
2022-11-05T00:43:34.696Z,6.70
2022-11-05T00:46:36.800Z,6.30
2022-11-05T00:49:38.962Z,6.68
2022-11-05T00:52:56.205Z,6.65
2022-11-05T00:55:58.544Z,6.18
2022-11-05T00:59:00.720Z,6.87
2022-11-05T01:02:03.077Z,6.82
2022-11-05T01:05:05.636Z,6.45
2022-11-05T01:08:09.743Z,6.90
2022-11-05T01:11:33.124Z,6.70
2022-11-05T01:14:35.625Z,6.73
2022-11-05T01:17:37.808Z,6.88
2022-11-05T01:20:40.510Z,6.60
2022-11-05T01:23:42.910Z,6.80
2022-11-05T01:26:45.026Z,7.60
2022-11-05T01:29:47.171Z,6.70
2022-11-05T01:32:49.768Z,6.55
2022-11-05T01:35:51.959Z,7.07
2022-11-05T01:38:54.188Z,6.95
2022-11-05T01:41:56.885Z,6.60
2022-11-05T01:45:02.542Z,6.60
2022-11-05T01:48:09.349Z,7.05
2022-11-05T01:51:16.496Z,7.50
2022-11-05T01:54:23.803Z,7.00
2022-11-05T01:57:26.537Z,7.60
2022-11-05T02:00:28.719Z,6.70
2022-11-05T02:03:31.231Z,6.60
2022-11-05T02:06:35.285Z,6.72
2022-11-05T02:10:02.288Z,6.57
2022-11-05T02:13:04.469Z,6.40
2022-11-05T02:16:26.030Z,5.43
2022-11-05T02:19:52.087Z,6.50
2022-11-05T02:22:57.012Z,5.35
2022-11-05T02:26:14.402Z,4.78
2022-11-05T02:29:35.097Z,4.20
2022-11-05T02:32:59.300Z,2.90
2022-11-05T02:36:26.482Z,2.33
2022-11-05T02:39:41.947Z,2.38
2022-11-05T02:42:53.207Z,1.95
2022-11-05T02:46:07.490Z,2.10
2022-11-05T02:49:13.835Z,2.10
2022-11-05T02:52:43.340Z,2.50
2022-11-05T02:56:00.633Z,2.63
2022-11-05T02:59:02.928Z,2.30
2022-11-05T03:02:05.904Z,2.42
2022-11-05T03:05:08.250Z,2.20
2022-11-05T03:08:19.629Z,1.70
2022-11-05T03:11:24.114Z,1.92
2022-11-05T03:15:00.275Z,1.85
2022-11-05T03:18:06.465Z,1.88
2022-11-05T03:21:31.965Z,1.80
2022-11-05T03:24:37.640Z,1.73
2022-11-05T03:27:43.317Z,1.38
2022-11-05T03:30:46.098Z,1.83
2022-11-05T03:33:52.132Z,2.20
2022-11-05T03:36:56.456Z,1.40
2022-11-05T03:40:01.087Z,1.77
2022-11-05T03:43:06.875Z,1.88
2022-11-05T03:46:19.865Z,1.70
2022-11-05T03:49:25.822Z,1.55
2022-11-05T03:52:35.131Z,1.77
2022-11-05T03:55:44.521Z,1.85
2022-11-05T03:58:47.596Z,1.67
2022-11-05T04:01:49.926Z,1.60
2022-11-05T04:04:52.925Z,1.85
2022-11-05T04:08:14.611Z,1.80
2022-11-05T04:11:35.449Z,1.70
2022-11-05T04:14:39.444Z,2.35
2022-11-05T04:17:41.905Z,2.25
2022-11-05T04:21:02.640Z,2.55
2022-11-05T04:24:08.313Z,2.27
2022-11-05T04:27:11.349Z,2.65
2022-11-05T04:30:18.875Z,2.40
2022-11-05T04:33:21.124Z,2.33
2022-11-05T04:36:23.307Z,2.60
2022-11-05T04:39:25.487Z,2.95
2022-11-05T04:42:28.197Z,3.05
2022-11-05T04:45:34.313Z,3.17
2022-11-05T04:48:36.947Z,2.65
2022-11-05T04:51:39.082Z,3.07
2022-11-05T04:54:41.212Z,3.42
2022-11-05T04:57:43.676Z,3.40
2022-11-05T05:00:45.886Z,3.13
2022-11-05T05:03:51.908Z,3.45
2022-11-05T05:06:54.116Z,3.23
2022-11-05T05:09:56.631Z,3.38
2022-11-05T05:12:58.784Z,4.18
2022-11-05T05:16:06.384Z,3.88
2022-11-05T05:19:08.545Z,4.07
2022-11-05T05:22:10.798Z,4.97
2022-11-05T05:25:13.010Z,4.28
2022-11-05T05:28:15.208Z,4.05
2022-11-05T05:31:17.374Z,4.88
2022-11-05T05:34:19.737Z,5.20
2022-11-05T05:37:22.032Z,4.63
2022-11-05T05:40:24.839Z,5.05
2022-11-05T05:43:34.308Z,5.25
2022-11-05T05:46:36.747Z,5.60
2022-11-05T05:49:38.894Z,4.88
2022-11-05T05:52:41.152Z,5.80
2022-11-05T05:55:43.574Z,5.82
2022-11-05T05:58:46.520Z,5.45
2022-11-05T06:01:48.765Z,5.97
2022-11-05T06:04:50.949Z,6.30
2022-11-05T06:07:57.161Z,6.10
2022-11-05T06:11:00.005Z,5.70
2022-11-05T06:14:02.391Z,5.60
2022-11-05T06:17:04.527Z,5.93
2022-11-05T06:20:08.551Z,5.28
2022-11-05T06:23:11.822Z,6.30
2022-11-05T06:26:17.389Z,6.13
2022-11-05T06:29:19.572Z,6.10
2022-11-05T06:32:22.032Z,6.22
2022-11-05T06:35:24.139Z,5.70
2022-11-05T06:38:26.315Z,6.10
2022-11-05T06:41:28.451Z,6.18
2022-11-05T06:44:30.627Z,5.93
2022-11-05T06:47:32.827Z,6.03
2022-11-05T06:50:35.307Z,5.60
2022-11-05T06:53:37.479Z,5.90
2022-11-05T06:56:39.651Z,5.80
2022-11-05T06:59:41.835Z,6.30
2022-11-05T07:02:44.071Z,5.47
2022-11-05T07:05:48.447Z,5.28
2022-11-05T07:08:51.201Z,5.83
2022-11-05T07:11:54.324Z,5.72
2022-11-05T07:14:56.775Z,5.20
2022-11-05T07:17:59.862Z,4.65
2022-11-05T07:21:02.036Z,4.70
2022-11-05T07:24:04.517Z,4.00
2022-11-05T07:27:06.721Z,4.93
2022-11-05T07:30:10.164Z,5.10
2022-11-05T07:33:12.701Z,5.25
2022-11-05T07:36:15.136Z,4.30
2022-11-05T07:39:17.320Z,4.80
2022-11-05T07:42:19.435Z,4.53
2022-11-05T07:45:22.669Z,4.82
2022-11-05T07:48:24.961Z,4.38
2022-11-05T07:51:27.198Z,4.82
2022-11-05T07:54:29.364Z,4.27
2022-11-05T07:57:31.542Z,4.03
2022-11-05T08:00:33.980Z,4.85
2022-11-05T08:03:36.375Z,4.20
2022-11-05T08:06:38.597Z,4.50
2022-11-05T08:09:40.703Z,4.10
2022-11-05T08:12:42.983Z,3.88
2022-11-05T08:15:45.358Z,3.75
2022-11-05T08:18:48.377Z,4.05
2022-11-05T08:21:50.513Z,3.80
2022-11-05T08:24:52.705Z,3.57
2022-11-05T08:28:02.524Z,3.75
2022-11-05T08:31:04.844Z,3.50
2022-11-05T08:34:07.862Z,3.75
2022-11-05T08:37:10.119Z,3.80
2022-11-05T08:40:12.468Z,3.40
2022-11-05T08:43:15.035Z,3.60
2022-11-05T08:46:17.320Z,3.42
2022-11-05T08:49:19.513Z,2.88
2022-11-05T08:52:21.746Z,2.53
2022-11-05T08:55:24.152Z,2.70
2022-11-05T08:58:26.330Z,2.78
2022-11-05T09:01:28.578Z,2.70
2022-11-05T09:04:30.883Z,2.72
2022-11-05T09:07:33.147Z,3.53
2022-11-05T09:10:35.714Z,2.93
2022-11-05T09:13:37.957Z,2.50
2022-11-05T09:16:42.279Z,2.88
2022-11-05T09:19:44.610Z,2.50
2022-11-05T09:22:46.993Z,2.35
2022-11-05T09:25:49.176Z,2.43
2022-11-05T09:28:51.342Z,2.50
2022-11-05T09:31:53.585Z,2.25
2022-11-05T09:34:55.747Z,2.08
2022-11-05T09:38:00.897Z,2.22
2022-11-05T09:41:05.842Z,2.20
2022-11-05T09:44:15.096Z,2.17
2022-11-05T09:47:24.949Z,2.05
2022-11-05T09:50:37.005Z,2.10
2022-11-05T09:53:40.954Z,2.28
2022-11-05T09:56:43.597Z,2.00
2022-11-05T09:59:49.018Z,2.10
2022-11-05T10:02:58.320Z,2.28
2022-11-05T10:06:08.224Z,2.30
2022-11-05T10:09:25.142Z,2.50
2022-11-05T10:12:35.540Z,1.90
2022-11-05T10:15:43.118Z,2.00
2022-11-05T10:18:51.104Z,1.90
2022-11-05T10:22:16.538Z,2.35
2022-11-05T10:25:21.367Z,2.00
2022-11-05T10:28:25.731Z,2.40
2022-11-05T10:31:34.292Z,2.40
2022-11-05T10:34:38.860Z,1.95
2022-11-05T10:37:41.446Z,2.03
2022-11-05T10:41:02.018Z,2.20
2022-11-05T10:44:19.601Z,2.43
2022-11-05T10:47:34.187Z,2.20
2022-11-05T10:50:36.590Z,2.80
2022-11-05T10:53:39.219Z,2.30
2022-11-05T10:56:41.724Z,2.70
2022-11-05T10:59:43.915Z,2.10
2022-11-05T11:02:48.638Z,1.90
2022-11-05T11:05:59.202Z,2.63
2022-11-05T11:09:03.219Z,2.50
2022-11-05T11:12:12.036Z,2.45
2022-11-05T11:15:17.499Z,3.30
2022-11-05T11:18:35.960Z,2.35
2022-11-05T11:21:42.117Z,2.22
2022-11-05T11:24:54.220Z,2.35
2022-11-05T11:28:02.842Z,2.60
2022-11-05T11:31:05.729Z,2.03
2022-11-05T11:34:17.217Z,2.17
2022-11-05T11:37:26.965Z,2.40
2022-11-05T11:40:33.039Z,2.00
2022-11-05T11:43:38.070Z,2.67
2022-11-05T11:46:41.675Z,2.07
2022-11-05T11:50:00.273Z,1.67
2022-11-05T11:53:26.444Z,1.90
2022-11-05T11:56:30.371Z,1.80
2022-11-05T12:00:02.423Z,2.13
2022-11-05T12:03:09.405Z,1.90
2022-11-05T12:06:14.225Z,2.22
2022-11-05T12:09:40.923Z,2.00
2022-11-05T12:12:43.095Z,2.25
2022-11-05T12:15:52.816Z,2.03
2022-11-05T12:19:25.578Z,3.37
2022-11-05T12:22:52.976Z,2.55
2022-11-05T12:26:00.198Z,1.80
2022-11-05T12:29:35.517Z,2.20
2022-11-05T12:32:49.658Z,1.70
2022-11-05T12:36:10.578Z,1.73
2022-11-05T12:39:22.932Z,1.85
2022-11-05T12:42:31.643Z,1.58
2022-11-05T12:46:03.489Z,1.58
2022-11-05T12:49:25.904Z,1.50
2022-11-05T12:52:28.046Z,1.90
2022-11-05T12:55:38.456Z,1.40
2022-11-05T12:58:45.386Z,1.42
2022-11-05T13:01:56.711Z,1.63
2022-11-05T13:05:04.112Z,1.60
2022-11-05T13:08:19.088Z,1.50
2022-11-05T13:11:21.596Z,1.70
2022-11-05T13:14:35.709Z,1.60
2022-11-05T13:18:12.053Z,1.55
2022-11-05T13:21:15.385Z,1.42
2022-11-05T13:24:31.810Z,1.50
2022-11-05T13:27:46.840Z,1.60
2022-11-05T13:30:53.391Z,1.80
2022-11-05T13:33:56.325Z,1.33
2022-11-05T13:37:21.594Z,1.40
2022-11-05T13:40:41.113Z,1.30
2022-11-05T13:44:05.898Z,1.85
2022-11-05T13:47:36.072Z,2.35
2022-11-05T13:50:48.658Z,2.00
2022-11-05T13:54:11.413Z,1.63
2022-11-05T13:57:32.440Z,1.60
2022-11-05T14:01:04.528Z,2.13
2022-11-05T14:04:07.035Z,1.90
2022-11-05T14:07:33.079Z,1.80
2022-11-05T14:10:41.669Z,2.70
2022-11-05T14:13:45.888Z,1.90
2022-11-05T14:17:08.418Z,1.20
2022-11-05T14:20:25.305Z,3.03
2022-11-05T14:23:28.647Z,1.10
2022-11-05T14:26:33.257Z,1.70
2022-11-05T14:29:43.664Z,1.20
2022-11-05T14:32:46.530Z,1.35
2022-11-05T14:35:49.087Z,2.28
2022-11-05T14:38:53.411Z,1.60
2022-11-05T14:41:56.612Z,2.00
2022-11-05T14:45:20.545Z,1.80
2022-11-05T14:48:30.677Z,3.00
2022-11-05T14:51:36.646Z,1.63
2022-11-05T14:54:45.370Z,1.10
2022-11-05T14:57:53.357Z,1.20
2022-11-05T15:00:56.511Z,1.30
2022-11-05T15:04:18.658Z,1.02
2022-11-05T15:07:24.021Z,1.20
2022-11-05T15:10:37.466Z,1.40
2022-11-05T15:13:55.029Z,1.20
2022-11-05T15:17:03.433Z,1.30
2022-11-05T15:20:14.605Z,1.30
2022-11-05T15:23:19.492Z,1.25
2022-11-05T15:26:45.612Z,1.20
2022-11-05T15:29:47.888Z,1.20
2022-11-05T15:32:52.886Z,1.70
2022-11-05T15:35:55.598Z,1.40
2022-11-05T15:39:29.299Z,1.50
2022-11-05T15:42:33.994Z,1.27
2022-11-05T15:45:39.052Z,1.30
2022-11-05T15:49:03.852Z,1.13
2022-11-05T15:52:12.034Z,1.20
2022-11-05T15:55:14.306Z,1.30
2022-11-05T15:58:17.226Z,1.10
2022-11-05T16:01:28.555Z,4.63
2022-11-05T16:04:33.076Z,4.10
2022-11-05T16:07:35.557Z,6.20
2022-11-05T16:10:49.935Z,5.07
2022-11-05T16:13:53.345Z,3.40
2022-11-05T16:16:55.798Z,2.22
2022-11-05T16:19:58.576Z,6.03
2022-11-05T16:23:03.802Z,4.97
2022-11-05T16:26:06.297Z,3.10
2022-11-05T16:29:22.312Z,2.92
2022-11-05T16:32:31.431Z,4.50
2022-11-05T16:35:40.013Z,3.03
2022-11-05T16:38:43.211Z,2.20
2022-11-05T16:41:46.603Z,2.83
2022-11-05T16:44:55.334Z,2.65
2022-11-05T16:47:59.354Z,1.98
2022-11-05T16:51:02.545Z,2.20
2022-11-05T16:54:06.762Z,2.75
2022-11-05T16:57:42.930Z,2.50
2022-11-05T17:00:46.437Z,2.30
2022-11-05T17:03:50.856Z,1.70
2022-11-05T17:06:53.847Z,2.97
2022-11-05T17:09:56.941Z,3.33
2022-11-05T17:13:17.648Z,8.10
2022-11-05T17:16:21.462Z,14.20
2022-11-05T17:19:25.270Z,4.55
2022-11-05T17:22:28.667Z,22.40
2022-11-05T17:25:32.588Z,21.08
2022-11-05T17:28:36.453Z,3.75
2022-11-05T17:31:46.257Z,3.17
2022-11-05T17:34:49.478Z,2.80
2022-11-05T17:37:52.094Z,2.80
2022-11-05T17:40:55.066Z,3.15
2022-11-05T17:43:58.904Z,2.50
2022-11-05T17:47:02.548Z,2.67
2022-11-05T17:50:08.009Z,2.60
2022-11-05T17:53:12.497Z,2.10
2022-11-05T17:56:28.813Z,1.83
2022-11-05T17:59:35.276Z,1.70
2022-11-05T18:02:37.983Z,1.75
2022-11-05T18:05:41.327Z,1.63
2022-11-05T18:08:44.423Z,1.63
2022-11-05T18:11:47.329Z,2.10
2022-11-05T18:14:52.852Z,2.45
2022-11-05T18:17:55.881Z,1.90
2022-11-05T18:20:59.200Z,4.53
2022-11-05T18:24:05.753Z,2.30
2022-11-05T18:27:08.003Z,3.10
2022-11-05T18:30:14.345Z,2.38
2022-11-05T18:33:17.034Z,2.22
2022-11-05T18:36:22.095Z,2.70
2022-11-05T18:39:25.278Z,2.60
2022-11-05T18:42:27.932Z,3.13
2022-11-05T18:45:32.030Z,4.55
2022-11-05T18:48:35.720Z,20.05
2022-11-05T18:51:39.730Z,5.65
2022-11-05T18:54:43.645Z,3.67
2022-11-05T18:57:47.133Z,3.38
2022-11-05T19:00:50.852Z,2.88
2022-11-05T19:03:58.410Z,1.98
2022-11-05T19:07:04.796Z,2.08
2022-11-05T19:10:08.440Z,2.03
2022-11-05T19:13:11.022Z,2.53
2022-11-05T19:16:17.305Z,2.20
2022-11-05T19:19:21.817Z,2.38
2022-11-05T19:22:26.605Z,2.72
2022-11-05T19:25:30.137Z,2.50
2022-11-05T19:28:32.670Z,2.10
2022-11-05T19:31:35.936Z,1.98
2022-11-05T19:34:38.803Z,2.15
2022-11-05T19:37:42.300Z,2.20
2022-11-05T19:40:46.421Z,2.20
2022-11-05T19:43:49.446Z,2.58
2022-11-05T19:46:57.787Z,3.25
2022-11-05T19:50:12.957Z,2.83
2022-11-05T19:53:16.462Z,2.20
2022-11-05T19:56:29.361Z,2.53
2022-11-05T19:59:33.421Z,2.67
2022-11-05T20:02:35.724Z,2.60
2022-11-05T20:05:38.090Z,2.30
2022-11-05T20:08:59.858Z,2.90
2022-11-05T20:12:04.194Z,2.37
2022-11-05T20:15:07.589Z,1.83
2022-11-05T20:18:10.428Z,1.95
2022-11-05T20:21:13.248Z,2.20
2022-11-05T20:24:23.553Z,2.10
2022-11-05T20:27:26.641Z,2.00
2022-11-05T20:30:29.407Z,1.85
2022-11-05T20:33:32.070Z,4.72
2022-11-05T20:36:35.268Z,3.95
2022-11-05T20:39:37.796Z,15.10
2022-11-05T20:42:40.938Z,4.27
2022-11-05T20:45:45.049Z,5.80
2022-11-05T20:48:48.385Z,3.50
2022-11-05T20:51:51.962Z,2.08
2022-11-05T20:54:54.429Z,3.50
2022-11-05T20:57:56.898Z,5.00
2022-11-05T21:00:59.495Z,8.10
2022-11-05T21:04:03.495Z,5.38
2022-11-05T21:07:06.196Z,5.38
2022-11-05T21:10:09.422Z,2.42
2022-11-05T21:13:12.427Z,2.23
2022-11-05T21:16:18.893Z,1.75
2022-11-05T21:19:24.354Z,1.38
2022-11-05T21:22:27.345Z,1.30
2022-11-05T21:25:31.148Z,1.45
2022-11-05T21:28:35.366Z,1.30
2022-11-05T21:31:39.072Z,1.40
2022-11-05T21:34:42.677Z,1.20
2022-11-05T21:37:45.774Z,1.20
2022-11-05T21:40:50.300Z,1.30
2022-11-05T21:43:53.594Z,0.80
2022-11-05T21:46:57.852Z,0.90
2022-11-05T21:50:01.118Z,1.08
2022-11-05T21:53:21.878Z,0.98
2022-11-05T21:56:44.992Z,1.00
2022-11-05T21:59:48.690Z,1.00
2022-11-05T22:02:51.687Z,1.08
2022-11-05T22:05:56.019Z,1.00
2022-11-05T22:08:58.163Z,1.00
2022-11-05T22:12:00.819Z,1.20
2022-11-05T22:15:03.368Z,1.10
2022-11-05T22:18:05.652Z,3.05
2022-11-05T22:21:08.178Z,1.85
2022-11-05T22:24:10.573Z,1.50
2022-11-05T22:27:15.044Z,1.60
2022-11-05T22:30:17.243Z,1.00
2022-11-05T22:33:19.371Z,1.10
2022-11-05T22:36:21.845Z,1.10
2022-11-05T22:39:24.059Z,1.20
2022-11-05T22:42:26.277Z,0.90
2022-11-05T22:45:28.521Z,1.07
2022-11-05T22:48:30.677Z,1.08
2022-11-05T22:51:34.813Z,0.85
2022-11-05T22:54:39.448Z,0.82
2022-11-05T22:57:42.014Z,1.40
2022-11-05T23:00:44.155Z,1.00
2022-11-05T23:03:47.591Z,0.82
2022-11-05T23:07:08.289Z,0.70
2022-11-05T23:10:29.231Z,0.88
2022-11-05T23:13:31.406Z,0.82
2022-11-05T23:17:11.904Z,0.77
2022-11-05T23:20:43.127Z,0.95
2022-11-05T23:24:04.281Z,1.23
2022-11-05T23:27:06.754Z,0.70
2022-11-05T23:30:12.540Z,1.10
2022-11-05T23:33:14.747Z,0.90
2022-11-05T23:36:35.498Z,1.13
2022-11-05T23:39:42.469Z,1.10
2022-11-05T23:43:04.551Z,1.63
2022-11-05T23:46:26.923Z,3.05
2022-11-05T23:49:29.172Z,1.43
2022-11-05T23:52:31.367Z,1.38
2022-11-05T23:55:33.717Z,1.35
2022-11-05T23:58:36.878Z,1.20
